sensor_id;sensor_type;location;lat;lon;timestamp;pressure;altitude;pressure_sealevel;temperature;humidity
63916;BME280;50094;51.356;-0.196;2022-12-18T00:00:08;101472.11;;;18.77;23.72
63916;BME280;50094;51.356;-0.196;2022-12-18T00:02:35;101468.65;;;19.67;23.67
63916;BME280;50094;51.356;-0.196;2022-12-18T00:05:03;101467.96;;;19.85;23.66
63916;BME280;50094;51.356;-0.196;2022-12-18T00:07:30;101462.59;;;19.83;23.64
63916;BME280;50094;51.356;-0.196;2022-12-18T00:09:57;101458.32;;;19.33;23.65
63916;BME280;50094;51.356;-0.196;2022-12-18T00:12:24;101449.47;;;19.75;23.63
63916;BME280;50094;51.356;-0.196;2022-12-18T00:14:51;101447.30;;;19.58;23.66
63916;BME280;50094;51.356;-0.196;2022-12-18T00:17:18;101442.37;;;19.49;23.69
63916;BME280;50094;51.356;-0.196;2022-12-18T00:19:45;101432.93;;;19.37;23.71
63916;BME280;50094;51.356;-0.196;2022-12-18T00:22:12;101430.03;;;19.23;23.77
63916;BME280;50094;51.356;-0.196;2022-12-18T00:24:39;101426.16;;;19.10;23.76
63916;BME280;50094;51.356;-0.196;2022-12-18T00:27:06;101419.03;;;19.26;23.78
63916;BME280;50094;51.356;-0.196;2022-12-18T00:29:34;101410.87;;;19.18;23.80
63916;BME280;50094;51.356;-0.196;2022-12-18T00:32:01;101417.44;;;19.20;23.81
63916;BME280;50094;51.356;-0.196;2022-12-18T00:34:29;101414.47;;;19.11;23.84
63916;BME280;50094;51.356;-0.196;2022-12-18T00:36:56;101422.83;;;19.12;23.86
63916;BME280;50094;51.356;-0.196;2022-12-18T00:39:23;101422.70;;;19.12;23.87
63916;BME280;50094;51.356;-0.196;2022-12-18T00:41:50;101419.98;;;19.16;23.86
63916;BME280;50094;51.356;-0.196;2022-12-18T00:44:18;101418.90;;;19.14;23.88
63916;BME280;50094;51.356;-0.196;2022-12-18T00:46:47;101414.70;;;19.11;23.87
63916;BME280;50094;51.356;-0.196;2022-12-18T00:49:16;101409.15;;;19.01;23.87
63916;BME280;50094;51.356;-0.196;2022-12-18T00:51:44;101408.79;;;18.70;23.91
63916;BME280;50094;51.356;-0.196;2022-12-18T00:54:11;101410.05;;;18.99;23.91
63916;BME280;50094;51.356;-0.196;2022-12-18T00:56:39;101411.53;;;19.23;23.91
63916;BME280;50094;51.356;-0.196;2022-12-18T00:59:06;101415.58;;;18.91;23.92
63916;BME280;50094;51.356;-0.196;2022-12-18T01:01:34;101416.62;;;18.94;23.92
63916;BME280;50094;51.356;-0.196;2022-12-18T01:04:02;101413.25;;;18.91;23.91
63916;BME280;50094;51.356;-0.196;2022-12-18T01:06:30;101409.34;;;19.16;23.91
63916;BME280;50094;51.356;-0.196;2022-12-18T01:08:57;101403.76;;;19.15;23.93
63916;BME280;50094;51.356;-0.196;2022-12-18T01:11:24;101398.05;;;18.87;23.92
63916;BME280;50094;51.356;-0.196;2022-12-18T01:13:52;101398.49;;;18.91;23.91
63916;BME280;50094;51.356;-0.196;2022-12-18T01:16:20;101396.36;;;19.08;23.91
63916;BME280;50094;51.356;-0.196;2022-12-18T01:18:51;101392.19;;;19.13;23.90
63916;BME280;50094;51.356;-0.196;2022-12-18T01:21:19;101386.88;;;18.95;23.86
63916;BME280;50094;51.356;-0.196;2022-12-18T01:23:50;101387.86;;;18.87;23.87
63916;BME280;50094;51.356;-0.196;2022-12-18T01:26:17;101387.50;;;19.02;23.87
63916;BME280;50094;51.356;-0.196;2022-12-18T01:28:45;101381.66;;;18.71;23.88
63916;BME280;50094;51.356;-0.196;2022-12-18T01:31:15;101383.85;;;18.99;23.87
63916;BME280;50094;51.356;-0.196;2022-12-18T01:33:43;101385.84;;;18.82;23.85
63916;BME280;50094;51.356;-0.196;2022-12-18T01:36:15;101379.23;;;18.84;23.84
63916;BME280;50094;51.356;-0.196;2022-12-18T01:38:44;101378.55;;;18.84;23.83
63916;BME280;50094;51.356;-0.196;2022-12-18T01:41:12;101376.55;;;18.89;23.81
63916;BME280;50094;51.356;-0.196;2022-12-18T01:43:44;101372.03;;;18.91;23.80
63916;BME280;50094;51.356;-0.196;2022-12-18T01:46:12;101359.57;;;18.91;23.77
63916;BME280;50094;51.356;-0.196;2022-12-18T01:48:40;101361.36;;;18.89;23.76
63916;BME280;50094;51.356;-0.196;2022-12-18T01:51:09;101358.26;;;18.84;23.75
63916;BME280;50094;51.356;-0.196;2022-12-18T01:53:39;101357.11;;;19.09;23.75
63916;BME280;50094;51.356;-0.196;2022-12-18T01:56:07;101352.19;;;18.65;23.74
63916;BME280;50094;51.356;-0.196;2022-12-18T01:58:41;101352.67;;;18.75;23.75
63916;BME280;50094;51.356;-0.196;2022-12-18T02:01:11;101353.66;;;18.69;23.74
63916;BME280;50094;51.356;-0.196;2022-12-18T02:03:41;101353.53;;;18.64;23.76
63916;BME280;50094;51.356;-0.196;2022-12-18T02:06:13;101357.54;;;19.17;23.74
63916;BME280;50094;51.356;-0.196;2022-12-18T02:08:48;101358.02;;;18.79;23.77
63916;BME280;50094;51.356;-0.196;2022-12-18T02:11:20;101363.97;;;18.59;23.76
63916;BME280;50094;51.356;-0.196;2022-12-18T02:13:56;101370.50;;;18.77;23.78
63916;BME280;50094;51.356;-0.196;2022-12-18T02:16:33;101376.77;;;18.66;23.75
63916;BME280;50094;51.356;-0.196;2022-12-18T02:19:08;101379.91;;;18.66;23.73
63916;BME280;50094;51.356;-0.196;2022-12-18T02:21:46;101384.05;;;18.93;23.73
63916;BME280;50094;51.356;-0.196;2022-12-18T02:24:26;101386.92;;;19.15;23.73
63916;BME280;50094;51.356;-0.196;2022-12-18T02:26:56;101382.87;;;18.81;23.74
63916;BME280;50094;51.356;-0.196;2022-12-18T02:29:27;101380.16;;;18.54;23.74
63916;BME280;50094;51.356;-0.196;2022-12-18T02:31:58;101378.59;;;18.49;23.76
63916;BME280;50094;51.356;-0.196;2022-12-18T02:34:29;101377.46;;;19.08;23.74
63916;BME280;50094;51.356;-0.196;2022-12-18T02:36:59;101377.68;;;18.81;23.75
63916;BME280;50094;51.356;-0.196;2022-12-18T02:39:29;101378.63;;;18.73;23.74
63916;BME280;50094;51.356;-0.196;2022-12-18T02:41:58;101380.97;;;18.99;23.74
63916;BME280;50094;51.356;-0.196;2022-12-18T02:44:26;101381.16;;;18.62;23.75
63916;BME280;50094;51.356;-0.196;2022-12-18T02:46:54;101387.53;;;18.32;23.76
63916;BME280;50094;51.356;-0.196;2022-12-18T02:49:29;101383.65;;;18.93;23.74
63916;BME280;50094;51.356;-0.196;2022-12-18T02:52:05;101389.57;;;18.98;23.74
63916;BME280;50094;51.356;-0.196;2022-12-18T02:54:42;101391.11;;;18.93;23.76
63916;BME280;50094;51.356;-0.196;2022-12-18T02:57:16;101389.01;;;18.60;23.71
63916;BME280;50094;51.356;-0.196;2022-12-18T02:59:51;101392.07;;;18.91;23.69
63916;BME280;50094;51.356;-0.196;2022-12-18T03:02:29;101394.78;;;18.72;23.66
63916;BME280;50094;51.356;-0.196;2022-12-18T03:05:02;101390.28;;;19.02;23.63
63916;BME280;50094;51.356;-0.196;2022-12-18T03:07:36;101383.90;;;19.03;23.62
63916;BME280;50094;51.356;-0.196;2022-12-18T03:10:07;101376.00;;;18.55;23.61
63916;BME280;50094;51.356;-0.196;2022-12-18T03:12:38;101372.27;;;18.76;23.59
63916;BME280;50094;51.356;-0.196;2022-12-18T03:15:11;101365.13;;;18.73;23.57
63916;BME280;50094;51.356;-0.196;2022-12-18T03:17:42;101366.34;;;18.96;23.58
63916;BME280;50094;51.356;-0.196;2022-12-18T03:20:17;101364.79;;;19.01;23.56
63916;BME280;50094;51.356;-0.196;2022-12-18T03:22:49;101359.86;;;18.76;23.54
63916;BME280;50094;51.356;-0.196;2022-12-18T03:25:19;101345.80;;;19.04;23.53
63916;BME280;50094;51.356;-0.196;2022-12-18T03:27:50;101345.57;;;18.73;23.53
63916;BME280;50094;51.356;-0.196;2022-12-18T03:30:19;101346.69;;;18.96;23.53
63916;BME280;50094;51.356;-0.196;2022-12-18T03:32:48;101341.21;;;18.72;23.52
63916;BME280;50094;51.356;-0.196;2022-12-18T03:35:22;101340.54;;;18.71;23.53
63916;BME280;50094;51.356;-0.196;2022-12-18T03:37:53;101339.38;;;18.80;23.49
63916;BME280;50094;51.356;-0.196;2022-12-18T03:40:21;101333.93;;;19.09;23.48
63916;BME280;50094;51.356;-0.196;2022-12-18T03:42:57;101336.59;;;18.77;23.48
63916;BME280;50094;51.356;-0.196;2022-12-18T03:45:32;101340.30;;;19.03;23.47
63916;BME280;50094;51.356;-0.196;2022-12-18T03:48:05;101338.50;;;18.74;23.47
63916;BME280;50094;51.356;-0.196;2022-12-18T03:50:40;101342.18;;;18.99;23.46
63916;BME280;50094;51.356;-0.196;2022-12-18T03:53:18;101338.07;;;18.81;23.47
63916;BME280;50094;51.356;-0.196;2022-12-18T03:55:50;101333.08;;;18.69;23.48
63916;BME280;50094;51.356;-0.196;2022-12-18T03:58:22;101327.17;;;19.02;23.39
63916;BME280;50094;51.356;-0.196;2022-12-18T04:00:52;101317.65;;;18.59;23.40
63916;BME280;50094;51.356;-0.196;2022-12-18T04:03:22;101323.27;;;18.52;23.42
63916;BME280;50094;51.356;-0.196;2022-12-18T04:05:51;101329.63;;;18.41;23.42
63916;BME280;50094;51.356;-0.196;2022-12-18T04:08:19;101331.44;;;18.40;23.47
63916;BME280;50094;51.356;-0.196;2022-12-18T04:10:48;101330.34;;;18.30;23.52
63916;BME280;50094;51.356;-0.196;2022-12-18T04:13:22;101330.30;;;18.49;23.55
63916;BME280;50094;51.356;-0.196;2022-12-18T04:15:49;101324.36;;;18.49;23.57
63916;BME280;50094;51.356;-0.196;2022-12-18T04:18:16;101318.26;;;18.25;23.58
63916;BME280;50094;51.356;-0.196;2022-12-18T04:20:43;101320.32;;;18.59;23.57
63916;BME280;50094;51.356;-0.196;2022-12-18T04:23:10;101316.09;;;18.60;23.58
63916;BME280;50094;51.356;-0.196;2022-12-18T04:25:37;101315.96;;;18.14;23.59
63916;BME280;50094;51.356;-0.196;2022-12-18T04:28:04;101321.33;;;18.63;23.60
63916;BME280;50094;51.356;-0.196;2022-12-18T04:30:31;101325.10;;;18.73;23.59
63916;BME280;50094;51.356;-0.196;2022-12-18T04:32:58;101321.94;;;18.82;23.57
63916;BME280;50094;51.356;-0.196;2022-12-18T04:35:25;101320.98;;;18.75;23.58
63916;BME280;50094;51.356;-0.196;2022-12-18T04:37:52;101318.94;;;18.58;23.56
63916;BME280;50094;51.356;-0.196;2022-12-18T04:40:20;101318.44;;;18.75;23.56
63916;BME280;50094;51.356;-0.196;2022-12-18T04:42:47;101315.71;;;18.73;23.58
63916;BME280;50094;51.356;-0.196;2022-12-18T04:45:14;101315.71;;;18.44;23.60
63916;BME280;50094;51.356;-0.196;2022-12-18T04:47:41;101314.44;;;18.44;23.60
63916;BME280;50094;51.356;-0.196;2022-12-18T04:50:08;101302.71;;;18.68;23.60
63916;BME280;50094;51.356;-0.196;2022-12-18T04:52:36;101298.06;;;18.44;23.61
63916;BME280;50094;51.356;-0.196;2022-12-18T04:55:03;101290.56;;;18.47;23.59
63916;BME280;50094;51.356;-0.196;2022-12-18T04:57:31;101289.38;;;18.73;23.60
63916;BME280;50094;51.356;-0.196;2022-12-18T04:59:58;101281.47;;;18.65;23.61
63916;BME280;50094;51.356;-0.196;2022-12-18T05:02:25;101277.13;;;18.55;23.60
63916;BME280;50094;51.356;-0.196;2022-12-18T05:04:52;101272.57;;;18.55;23.60
63916;BME280;50094;51.356;-0.196;2022-12-18T05:07:19;101268.31;;;18.54;23.60
63916;BME280;50094;51.356;-0.196;2022-12-18T05:09:46;101266.98;;;18.54;23.60
63916;BME280;50094;51.356;-0.196;2022-12-18T05:12:13;101256.03;;;18.51;23.59
63916;BME280;50094;51.356;-0.196;2022-12-18T05:14:40;101248.98;;;18.65;23.60
63916;BME280;50094;51.356;-0.196;2022-12-18T05:17:07;101239.70;;;18.67;23.62
63916;BME280;50094;51.356;-0.196;2022-12-18T05:19:34;101236.96;;;18.73;23.61
63916;BME280;50094;51.356;-0.196;2022-12-18T05:22:06;101236.19;;;18.31;23.59
63916;BME280;50094;51.356;-0.196;2022-12-18T05:24:33;101230.96;;;18.61;23.58
63916;BME280;50094;51.356;-0.196;2022-12-18T05:27:00;101227.24;;;18.32;23.57
63916;BME280;50094;51.356;-0.196;2022-12-18T05:29:27;101213.44;;;18.32;23.57
63916;BME280;50094;51.356;-0.196;2022-12-18T05:31:54;101209.50;;;18.62;23.57
63916;BME280;50094;51.356;-0.196;2022-12-18T05:34:21;101209.09;;;18.70;23.55
63916;BME280;50094;51.356;-0.196;2022-12-18T05:36:48;101213.41;;;18.67;23.56
63916;BME280;50094;51.356;-0.196;2022-12-18T05:39:15;101213.11;;;18.61;23.58
63916;BME280;50094;51.356;-0.196;2022-12-18T05:41:42;101203.55;;;18.32;23.58
63916;BME280;50094;51.356;-0.196;2022-12-18T05:44:09;101191.79;;;18.52;23.59
63916;BME280;50094;51.356;-0.196;2022-12-18T05:46:36;101191.27;;;18.46;23.61
63916;BME280;50094;51.356;-0.196;2022-12-18T05:49:03;101193.84;;;18.43;23.63
63916;BME280;50094;51.356;-0.196;2022-12-18T05:51:30;101190.64;;;18.68;23.64
63916;BME280;50094;51.356;-0.196;2022-12-18T05:53:58;101191.27;;;18.50;23.65
63916;BME280;50094;51.356;-0.196;2022-12-18T05:56:25;101190.03;;;18.71;23.66
63916;BME280;50094;51.356;-0.196;2022-12-18T05:58:53;101192.07;;;18.68;23.66
63916;BME280;50094;51.356;-0.196;2022-12-18T06:01:22;101177.13;;;18.38;23.67
63916;BME280;50094;51.356;-0.196;2022-12-18T06:03:49;101170.42;;;18.35;23.68
63916;BME280;50094;51.356;-0.196;2022-12-18T06:06:18;101164.49;;;18.39;23.72
63916;BME280;50094;51.356;-0.196;2022-12-18T06:08:45;101152.35;;;18.46;23.75
63916;BME280;50094;51.356;-0.196;2022-12-18T06:11:13;101149.59;;;18.62;23.76
63916;BME280;50094;51.356;-0.196;2022-12-18T06:13:40;101154.06;;;18.88;23.79
63916;BME280;50094;51.356;-0.196;2022-12-18T06:16:08;101150.85;;;18.43;23.81
63916;BME280;50094;51.356;-0.196;2022-12-18T06:18:35;101145.32;;;18.69;23.86
63916;BME280;50094;51.356;-0.196;2022-12-18T06:21:02;101138.39;;;18.73;23.89
63916;BME280;50094;51.356;-0.196;2022-12-18T06:23:29;101128.55;;;18.88;23.90
63916;BME280;50094;51.356;-0.196;2022-12-18T06:25:57;101115.94;;;18.96;23.90
63916;BME280;50094;51.356;-0.196;2022-12-18T06:28:24;101109.81;;;18.91;23.94
63916;BME280;50094;51.356;-0.196;2022-12-18T06:30:51;101107.59;;;18.75;23.94
63916;BME280;50094;51.356;-0.196;2022-12-18T06:33:18;101096.43;;;19.04;23.96
63916;BME280;50094;51.356;-0.196;2022-12-18T06:35:45;101088.71;;;18.76;23.99
63916;BME280;50094;51.356;-0.196;2022-12-18T06:38:13;101085.03;;;18.81;24.01
63916;BME280;50094;51.356;-0.196;2022-12-18T06:40:40;101082.51;;;18.88;24.00
63916;BME280;50094;51.356;-0.196;2022-12-18T06:43:07;101087.04;;;18.91;24.01
63916;BME280;50094;51.356;-0.196;2022-12-18T06:45:34;101088.58;;;18.95;24.02
63916;BME280;50094;51.356;-0.196;2022-12-18T06:48:01;101090.63;;;18.92;24.03
63916;BME280;50094;51.356;-0.196;2022-12-18T06:50:29;101096.41;;;18.87;24.07
63916;BME280;50094;51.356;-0.196;2022-12-18T06:52:56;101087.27;;;19.23;24.05
63916;BME280;50094;51.356;-0.196;2022-12-18T06:55:24;101092.09;;;19.21;24.06
63916;BME280;50094;51.356;-0.196;2022-12-18T06:57:51;101084.26;;;19.08;24.03
63916;BME280;50094;51.356;-0.196;2022-12-18T07:00:19;101087.93;;;19.15;24.02
63916;BME280;50094;51.356;-0.196;2022-12-18T07:02:46;101088.69;;;19.21;23.99
63916;BME280;50094;51.356;-0.196;2022-12-18T07:05:13;101089.08;;;19.27;23.97
63916;BME280;50094;51.356;-0.196;2022-12-18T07:07:40;101081.51;;;19.05;23.95
63916;BME280;50094;51.356;-0.196;2022-12-18T07:10:08;101077.95;;;19.22;23.96
63916;BME280;50094;51.356;-0.196;2022-12-18T07:12:35;101067.67;;;19.01;23.96
63916;BME280;50094;51.356;-0.196;2022-12-18T07:15:04;101068.90;;;19.07;23.93
63916;BME280;50094;51.356;-0.196;2022-12-18T07:17:31;101062.60;;;19.30;23.93
63916;BME280;50094;51.356;-0.196;2022-12-18T07:19:58;101069.03;;;19.28;23.93
63916;BME280;50094;51.356;-0.196;2022-12-18T07:22:26;101061.79;;;19.03;23.93
63916;BME280;50094;51.356;-0.196;2022-12-18T07:24:53;101072.66;;;19.17;23.95
63916;BME280;50094;51.356;-0.196;2022-12-18T07:27:20;101073.03;;;18.99;23.97
63916;BME280;50094;51.356;-0.196;2022-12-18T07:29:47;101080.87;;;19.28;23.94
63916;BME280;50094;51.356;-0.196;2022-12-18T07:32:14;101074.84;;;19.34;23.94
63916;BME280;50094;51.356;-0.196;2022-12-18T07:34:41;101063.39;;;19.13;23.92
63916;BME280;50094;51.356;-0.196;2022-12-18T07:37:08;101057.73;;;19.31;23.93
63916;BME280;50094;51.356;-0.196;2022-12-18T07:39:35;101054.94;;;19.41;23.90
63916;BME280;50094;51.356;-0.196;2022-12-18T07:42:03;101052.00;;;19.16;23.88
63916;BME280;50094;51.356;-0.196;2022-12-18T07:44:31;101041.48;;;19.39;23.87
63916;BME280;50094;51.356;-0.196;2022-12-18T07:46:58;101032.06;;;19.08;23.90
63916;BME280;50094;51.356;-0.196;2022-12-18T07:49:25;101022.78;;;19.27;23.90
63916;BME280;50094;51.356;-0.196;2022-12-18T07:51:54;101022.63;;;19.21;23.93
63916;BME280;50094;51.356;-0.196;2022-12-18T07:54:21;101031.58;;;19.27;23.93
63916;BME280;50094;51.356;-0.196;2022-12-18T07:56:48;101028.89;;;19.28;23.94
63916;BME280;50094;51.356;-0.196;2022-12-18T07:59:16;101020.06;;;19.29;23.96
63916;BME280;50094;51.356;-0.196;2022-12-18T08:01:43;101019.69;;;19.09;23.95
63916;BME280;50094;51.356;-0.196;2022-12-18T08:04:11;101015.96;;;19.13;23.95
63916;BME280;50094;51.356;-0.196;2022-12-18T08:06:38;101023.81;;;19.16;23.96
63916;BME280;50094;51.356;-0.196;2022-12-18T08:09:05;101028.87;;;18.99;23.95
63916;BME280;50094;51.356;-0.196;2022-12-18T08:11:32;101026.27;;;19.50;23.93
63916;BME280;50094;51.356;-0.196;2022-12-18T08:13:59;101026.05;;;19.69;23.93
63916;BME280;50094;51.356;-0.196;2022-12-18T08:16:26;101027.76;;;19.40;23.94
63916;BME280;50094;51.356;-0.196;2022-12-18T08:18:54;101019.01;;;19.50;23.92
63916;BME280;50094;51.356;-0.196;2022-12-18T08:21:23;101017.43;;;19.37;23.88
63916;BME280;50094;51.356;-0.196;2022-12-18T08:23:53;101024.57;;;19.60;23.87
63916;BME280;50094;51.356;-0.196;2022-12-18T08:26:21;101035.13;;;19.43;23.82
63916;BME280;50094;51.356;-0.196;2022-12-18T08:28:49;101033.38;;;19.55;23.81
63916;BME280;50094;51.356;-0.196;2022-12-18T08:31:17;101034.59;;;19.52;23.82
63916;BME280;50094;51.356;-0.196;2022-12-18T08:33:45;101043.56;;;19.64;23.78
63916;BME280;50094;51.356;-0.196;2022-12-18T08:36:15;101048.47;;;19.21;23.77
63916;BME280;50094;51.356;-0.196;2022-12-18T08:38:43;101045.15;;;19.69;23.73
63916;BME280;50094;51.356;-0.196;2022-12-18T08:41:12;101053.33;;;19.45;23.71
63916;BME280;50094;51.356;-0.196;2022-12-18T08:43:40;101052.17;;;19.66;23.70
63916;BME280;50094;51.356;-0.196;2022-12-18T08:46:07;101046.24;;;19.24;23.68
63916;BME280;50094;51.356;-0.196;2022-12-18T08:48:34;101039.19;;;19.71;23.63
63916;BME280;50094;51.356;-0.196;2022-12-18T08:51:01;101040.66;;;19.70;23.62
63916;BME280;50094;51.356;-0.196;2022-12-18T08:53:29;101043.53;;;19.68;23.61
63916;BME280;50094;51.356;-0.196;2022-12-18T08:55:56;101046.57;;;19.44;23.60
63916;BME280;50094;51.356;-0.196;2022-12-18T08:58:23;101032.22;;;19.61;23.60
63916;BME280;50094;51.356;-0.196;2022-12-18T09:00:53;101025.20;;;19.54;23.60
63916;BME280;50094;51.356;-0.196;2022-12-18T09:03:20;101021.39;;;19.52;23.60
63916;BME280;50094;51.356;-0.196;2022-12-18T09:05:48;101020.92;;;19.49;23.59
63916;BME280;50094;51.356;-0.196;2022-12-18T09:08:15;101028.31;;;19.37;23.63
63916;BME280;50094;51.356;-0.196;2022-12-18T09:10:43;101024.74;;;19.32;23.65
63916;BME280;50094;51.356;-0.196;2022-12-18T09:13:12;101023.72;;;19.29;23.65
63916;BME280;50094;51.356;-0.196;2022-12-18T09:15:41;101023.14;;;19.38;23.69
63916;BME280;50094;51.356;-0.196;2022-12-18T09:18:08;101026.85;;;19.32;23.77
63916;BME280;50094;51.356;-0.196;2022-12-18T09:20:36;101036.00;;;19.20;23.79
63916;BME280;50094;51.356;-0.196;2022-12-18T09:23:04;101026.28;;;19.41;23.81
63916;BME280;50094;51.356;-0.196;2022-12-18T09:25:32;101022.69;;;19.38;23.82
63916;BME280;50094;51.356;-0.196;2022-12-18T09:27:59;101016.54;;;19.45;23.80
63916;BME280;50094;51.356;-0.196;2022-12-18T09:30:26;101015.18;;;19.45;23.81
63916;BME280;50094;51.356;-0.196;2022-12-18T09:32:53;101021.64;;;19.33;23.83
63916;BME280;50094;51.356;-0.196;2022-12-18T09:35:20;101034.02;;;19.14;23.85
63916;BME280;50094;51.356;-0.196;2022-12-18T09:37:47;101026.47;;;19.34;23.86
63916;BME280;50094;51.356;-0.196;2022-12-18T09:40:16;101032.90;;;19.12;23.86
63916;BME280;50094;51.356;-0.196;2022-12-18T09:42:49;101045.54;;;19.15;23.86
63916;BME280;50094;51.356;-0.196;2022-12-18T09:45:19;101056.28;;;19.14;23.87
63916;BME280;50094;51.356;-0.196;2022-12-18T09:47:47;101055.82;;;19.15;23.86
63916;BME280;50094;51.356;-0.196;2022-12-18T09:50:24;101056.29;;;19.15;23.88
63916;BME280;50094;51.356;-0.196;2022-12-18T09:52:56;101046.48;;;19.11;23.86
63916;BME280;50094;51.356;-0.196;2022-12-18T09:55:28;101049.51;;;19.13;23.85
63916;BME280;50094;51.356;-0.196;2022-12-18T09:58:02;101057.83;;;19.17;23.85
63916;BME280;50094;51.356;-0.196;2022-12-18T10:00:32;101060.02;;;19.20;23.84
63916;BME280;50094;51.356;-0.196;2022-12-18T10:03:02;101065.78;;;19.29;23.80
63916;BME280;50094;51.356;-0.196;2022-12-18T10:05:37;101069.63;;;19.25;23.82
63916;BME280;50094;51.356;-0.196;2022-12-18T10:08:10;101077.09;;;19.25;23.81
63916;BME280;50094;51.356;-0.196;2022-12-18T10:10:46;101066.21;;;19.17;23.80
63916;BME280;50094;51.356;-0.196;2022-12-18T10:13:22;101063.16;;;18.88;23.81
63916;BME280;50094;51.356;-0.196;2022-12-18T10:16:03;101053.12;;;19.13;23.80
63916;BME280;50094;51.356;-0.196;2022-12-18T10:18:47;101053.99;;;19.14;23.81
63916;BME280;50094;51.356;-0.196;2022-12-18T10:21:23;101053.21;;;19.23;23.79
63916;BME280;50094;51.356;-0.196;2022-12-18T10:23:57;101047.96;;;19.20;23.78
63916;BME280;50094;51.356;-0.196;2022-12-18T10:26:28;101050.28;;;18.92;23.77
63916;BME280;50094;51.356;-0.196;2022-12-18T10:28:59;101046.99;;;19.16;23.76
63916;BME280;50094;51.356;-0.196;2022-12-18T10:31:26;101042.73;;;19.18;23.75
63916;BME280;50094;51.356;-0.196;2022-12-18T10:33:54;101036.55;;;19.10;23.80
63916;BME280;50094;51.356;-0.196;2022-12-18T10:36:23;101032.60;;;18.92;23.77
63916;BME280;50094;51.356;-0.196;2022-12-18T10:38:50;101021.87;;;19.15;23.76
63916;BME280;50094;51.356;-0.196;2022-12-18T10:41:26;101021.26;;;19.21;23.75
63916;BME280;50094;51.356;-0.196;2022-12-18T10:44:12;101005.74;;;19.12;23.71
63916;BME280;50094;51.356;-0.196;2022-12-18T10:46:40;100986.92;;;19.31;23.70
63916;BME280;50094;51.356;-0.196;2022-12-18T10:49:18;100976.17;;;19.25;23.68
63916;BME280;50094;51.356;-0.196;2022-12-18T10:51:46;100971.57;;;19.25;23.68
63916;BME280;50094;51.356;-0.196;2022-12-18T10:54:16;100960.86;;;19.23;23.67
63916;BME280;50094;51.356;-0.196;2022-12-18T10:56:44;100959.53;;;18.92;23.65
63916;BME280;50094;51.356;-0.196;2022-12-18T10:59:13;100955.36;;;19.11;23.66
63916;BME280;50094;51.356;-0.196;2022-12-18T11:01:57;100954.30;;;19.33;23.66
63916;BME280;50094;51.356;-0.196;2022-12-18T11:04:26;100955.87;;;19.29;23.68
63916;BME280;50094;51.356;-0.196;2022-12-18T11:06:57;100953.56;;;19.18;23.71
63916;BME280;50094;51.356;-0.196;2022-12-18T11:09:26;100949.82;;;19.16;23.74
63916;BME280;50094;51.356;-0.196;2022-12-18T11:11:56;100943.23;;;19.17;23.74
63916;BME280;50094;51.356;-0.196;2022-12-18T11:14:26;100940.02;;;19.32;23.78
63916;BME280;50094;51.356;-0.196;2022-12-18T11:16:55;100934.91;;;19.02;23.81
63916;BME280;50094;51.356;-0.196;2022-12-18T11:19:31;100939.77;;;19.06;23.83
63916;BME280;50094;51.356;-0.196;2022-12-18T11:22:01;100930.48;;;18.67;23.83
63916;BME280;50094;51.356;-0.196;2022-12-18T11:24:31;100925.24;;;18.68;23.90
63916;BME280;50094;51.356;-0.196;2022-12-18T11:27:02;100925.77;;;19.18;23.92
63916;BME280;50094;51.356;-0.196;2022-12-18T11:29:34;100923.56;;;18.86;23.97
63916;BME280;50094;51.356;-0.196;2022-12-18T11:32:24;100923.88;;;18.82;24.02
63916;BME280;50094;51.356;-0.196;2022-12-18T11:35:01;100922.08;;;19.05;24.07
63916;BME280;50094;51.356;-0.196;2022-12-18T11:37:29;100915.72;;;18.75;24.12
63916;BME280;50094;51.356;-0.196;2022-12-18T11:40:03;100907.89;;;18.69;24.18
63916;BME280;50094;51.356;-0.196;2022-12-18T11:42:38;100906.64;;;18.64;24.24
63916;BME280;50094;51.356;-0.196;2022-12-18T11:45:25;100901.37;;;18.91;24.29
63916;BME280;50094;51.356;-0.196;2022-12-18T11:47:58;100896.71;;;19.00;24.29
63916;BME280;50094;51.356;-0.196;2022-12-18T11:50:34;100895.88;;;18.72;24.33
63916;BME280;50094;51.356;-0.196;2022-12-18T11:53:04;100890.31;;;18.69;24.38
63916;BME280;50094;51.356;-0.196;2022-12-18T11:55:41;100882.49;;;18.64;24.42
63916;BME280;50094;51.356;-0.196;2022-12-18T11:58:15;100867.54;;;18.66;24.45
63916;BME280;50094;51.356;-0.196;2022-12-18T12:00:50;100860.07;;;18.60;24.50
63916;BME280;50094;51.356;-0.196;2022-12-18T12:03:27;100845.60;;;19.06;24.53
63916;BME280;50094;51.356;-0.196;2022-12-18T12:06:08;100839.29;;;18.57;24.57
63916;BME280;50094;51.356;-0.196;2022-12-18T12:08:45;100823.59;;;18.77;24.63
63916;BME280;50094;51.356;-0.196;2022-12-18T12:11:26;100815.95;;;18.96;24.66
63916;BME280;50094;51.356;-0.196;2022-12-18T12:14:07;100805.87;;;18.33;24.75
63916;BME280;50094;51.356;-0.196;2022-12-18T12:16:43;100799.98;;;18.33;24.80
63916;BME280;50094;51.356;-0.196;2022-12-18T12:19:25;100784.71;;;18.46;24.88
63916;BME280;50094;51.356;-0.196;2022-12-18T12:22:03;100777.72;;;18.51;24.91
63916;BME280;50094;51.356;-0.196;2022-12-18T12:24:40;100775.04;;;18.34;24.94
63916;BME280;50094;51.356;-0.196;2022-12-18T12:27:19;100766.46;;;18.67;24.96
63916;BME280;50094;51.356;-0.196;2022-12-18T12:29:58;100765.33;;;18.69;24.97
63916;BME280;50094;51.356;-0.196;2022-12-18T12:32:37;100764.69;;;18.76;24.99
63916;BME280;50094;51.356;-0.196;2022-12-18T12:35:16;100764.62;;;18.43;25.03
63916;BME280;50094;51.356;-0.196;2022-12-18T12:37:55;100758.52;;;18.64;25.07
63916;BME280;50094;51.356;-0.196;2022-12-18T12:40:28;100754.64;;;18.55;25.13
63916;BME280;50094;51.356;-0.196;2022-12-18T12:42:59;100751.34;;;18.71;25.18
63916;BME280;50094;51.356;-0.196;2022-12-18T12:45:36;100747.11;;;18.30;25.20
63916;BME280;50094;51.356;-0.196;2022-12-18T12:48:10;100748.27;;;18.43;25.27
63916;BME280;50094;51.356;-0.196;2022-12-18T12:50:41;100762.37;;;18.69;25.30
63916;BME280;50094;51.356;-0.196;2022-12-18T12:53:18;100760.86;;;18.43;25.36